Time;durP1;ratioP1;P1;durP2;ratioP2;P2;SDS_P1;SDS_P2;PMS_P1;PMS_P2;Temp;Humidity;BMP_temperature;BMP_pressure;BME280_temperature;BME280_humidity;BME280_pressure;Samples;Min_cycle;Max_cycle;Signal;HPM_P1;HPM_P2
2023/03/19 00:00:54;;;;;;;0.50;0.50;;;;;;;;;;4994996;28;20173;-83
2023/03/19 00:03:20;;;;;;;0.70;0.70;;;;;;;;;;4995385;28;20325;-83
2023/03/19 00:05:52;;;;;;;0.53;0.53;;;;;;;;;;4995369;28;20584;-85
2023/03/19 00:08:19;;;;;;;0.70;0.70;;;;;;;;;;4994534;28;20755;-83
2023/03/19 00:10:45;;;;;;;0.60;0.60;;;;;;;;;;4994903;28;20185;-84
2023/03/19 00:13:11;;;;;;;0.70;0.70;;;;;;;;;;4994485;28;20683;-84
2023/03/19 00:15:37;;;;;;;0.57;0.57;;;;;;;;;;4995721;28;20185;-83
2023/03/19 00:18:05;;;;;;;0.60;0.60;;;;;;;;;;4995307;28;20224;-83
2023/03/19 00:20:31;;;;;;;0.70;0.70;;;;;;;;;;4995404;28;20202;-83
2023/03/19 00:22:57;;;;;;;0.60;0.60;;;;;;;;;;4994854;28;20201;-82
2023/03/19 00:25:23;;;;;;;0.50;0.50;;;;;;;;;;4995331;28;20196;-82
2023/03/19 00:27:49;;;;;;;0.60;0.60;;;;;;;;;;4995800;28;20200;-85
2023/03/19 00:30:15;;;;;;;0.50;0.50;;;;;;;;;;4995526;28;20774;-84
2023/03/19 00:32:41;;;;;;;0.60;0.60;;;;;;;;;;4994864;28;20201;-84
2023/03/19 00:35:07;;;;;;;0.60;0.60;;;;;;;;;;4993166;28;20239;-84
2023/03/19 00:37:37;;;;;;;0.60;0.60;;;;;;;;;;4996357;28;20224;-84
2023/03/19 00:40:04;;;;;;;0.60;0.60;;;;;;;;;;4996575;28;20201;-84
2023/03/19 00:42:30;;;;;;;0.60;0.60;;;;;;;;;;4995583;28;20201;-84
2023/03/19 00:44:56;;;;;;;0.60;0.60;;;;;;;;;;4995505;28;20181;-83
2023/03/19 00:47:23;;;;;;;0.60;0.60;;;;;;;;;;4995544;28;20651;-83
2023/03/19 00:49:49;;;;;;;0.60;0.60;;;;;;;;;;4995363;28;20181;-83
2023/03/19 00:52:15;;;;;;;0.70;0.70;;;;;;;;;;4995148;28;20177;-84
2023/03/19 00:54:41;;;;;;;0.60;0.60;;;;;;;;;;4995517;28;20640;-83
2023/03/19 00:57:07;;;;;;;0.60;0.60;;;;;;;;;;4995298;28;20205;-83
2023/03/19 00:59:33;;;;;;;0.50;0.50;;;;;;;;;;4995677;28;20604;-85
2023/03/19 01:01:59;;;;;;;0.53;0.53;;;;;;;;;;4996049;28;20189;-85
2023/03/19 01:04:25;;;;;;;0.60;0.60;;;;;;;;;;4995628;28;20217;-85
2023/03/19 01:06:51;;;;;;;0.60;0.60;;;;;;;;;;4996750;28;20177;-84
2023/03/19 01:09:17;;;;;;;0.60;0.60;;;;;;;;;;4996687;28;20185;-83
2023/03/19 01:11:43;;;;;;;0.60;0.60;;;;;;;;;;4996078;28;20185;-84
2023/03/19 01:14:10;;;;;;;0.60;0.60;;;;;;;;;;4995962;28;20220;-87
2023/03/19 01:16:36;;;;;;;0.57;0.57;;;;;;;;;;4996462;28;20296;-83
2023/03/19 01:19:02;;;;;;;0.50;0.50;;;;;;;;;;4996529;28;20193;-86
2023/03/19 01:21:29;;;;;;;0.50;0.50;;;;;;;;;;4996918;28;20201;-83
2023/03/19 01:23:56;;;;;;;0.50;0.50;;;;;;;;;;4997387;28;20193;-83
2023/03/19 01:26:22;;;;;;;0.60;0.60;;;;;;;;;;5000760;28;20189;-84
2023/03/19 01:28:48;;;;;;;0.60;0.60;;;;;;;;;;5000858;28;20212;-83
2023/03/19 01:31:15;;;;;;;0.50;0.50;;;;;;;;;;5001609;28;20177;-84
2023/03/19 01:33:41;;;;;;;0.60;0.60;;;;;;;;;;5000926;28;20205;-84
2023/03/19 01:36:08;;;;;;;0.60;0.60;;;;;;;;;;5001996;28;20177;-84
2023/03/19 01:38:33;;;;;;;0.60;0.60;;;;;;;;;;5001567;28;20181;-83
2023/03/19 01:41:00;;;;;;;0.40;0.40;;;;;;;;;;5001983;28;20559;-84
2023/03/19 01:43:31;;;;;;;0.53;0.53;;;;;;;;;;5000873;28;20288;-84
2023/03/19 01:46:05;;;;;;;0.60;0.60;;;;;;;;;;5001217;28;20189;-82
2023/03/19 01:48:34;;;;;;;0.67;0.67;;;;;;;;;;5001776;28;20331;-82
2023/03/19 01:51:01;;;;;;;0.50;0.50;;;;;;;;;;5013480;28;20263;-80
2023/03/19 01:53:29;;;;;;;0.70;0.70;;;;;;;;;;5019116;28;20213;-80
2023/03/19 01:55:59;;;;;;;0.60;0.60;;;;;;;;;;5019777;28;20166;-80
2023/03/19 01:58:25;;;;;;;0.67;0.67;;;;;;;;;;5016789;28;20223;-85
2023/03/19 02:00:51;;;;;;;0.70;0.70;;;;;;;;;;4998430;28;20166;-85
2023/03/19 02:03:18;;;;;;;0.60;0.60;;;;;;;;;;4998149;28;20798;-84
2023/03/19 02:05:44;;;;;;;0.57;0.57;;;;;;;;;;4998218;28;20264;-84
2023/03/19 02:08:12;;;;;;;0.60;0.60;;;;;;;;;;4997944;28;20533;-82
2023/03/19 02:10:38;;;;;;;0.60;0.60;;;;;;;;;;4998098;28;20620;-84
2023/03/19 02:13:05;;;;;;;0.67;0.67;;;;;;;;;;4998316;28;20201;-84
2023/03/19 02:15:31;;;;;;;0.53;0.53;;;;;;;;;;4997938;28;20192;-84
2023/03/19 02:17:57;;;;;;;0.60;0.60;;;;;;;;;;4997941;28;20221;-85
2023/03/19 02:20:39;;;;;;;0.60;0.60;;;;;;;;;;4998224;28;20236;-84
2023/03/19 02:23:14;;;;;;;0.50;0.50;;;;;;;;;;4997947;28;20578;-84
2023/03/19 02:25:46;;;;;;;0.60;0.60;;;;;;;;;;4998646;28;20184;-83
2023/03/19 02:28:14;;;;;;;0.50;0.50;;;;;;;;;;4998423;28;20181;-84
2023/03/19 02:30:41;;;;;;;0.60;0.60;;;;;;;;;;4998306;28;20177;-84
2023/03/19 02:33:09;;;;;;;0.50;0.50;;;;;;;;;;5006791;28;20208;-83
2023/03/19 02:35:35;;;;;;;0.60;0.60;;;;;;;;;;5008452;28;20631;-84
2023/03/19 02:38:03;;;;;;;0.57;0.57;;;;;;;;;;4998386;28;20255;-84
2023/03/19 02:40:30;;;;;;;0.70;0.70;;;;;;;;;;4999140;28;20173;-84
2023/03/19 02:42:56;;;;;;;0.50;0.50;;;;;;;;;;4999142;28;20271;-83
2023/03/19 02:45:23;;;;;;;0.60;0.60;;;;;;;;;;4998940;28;20268;-84
2023/03/19 02:47:49;;;;;;;0.60;0.60;;;;;;;;;;4999556;28;20189;-83
2023/03/19 02:50:15;;;;;;;0.60;0.60;;;;;;;;;;5008242;28;20181;-83
2023/03/19 02:52:41;;;;;;;0.50;0.50;;;;;;;;;;5014132;28;20220;-83
2023/03/19 02:55:08;;;;;;;0.60;0.60;;;;;;;;;;5008857;28;20192;-85
2023/03/19 02:57:34;;;;;;;0.50;0.50;;;;;;;;;;4997952;28;20292;-83
2023/03/19 03:00:00;;;;;;;0.70;0.70;;;;;;;;;;4996458;28;20262;-84
2023/03/19 03:02:26;;;;;;;0.53;0.53;;;;;;;;;;4997047;28;20181;-83
2023/03/19 03:04:52;;;;;;;0.67;0.67;;;;;;;;;;5000188;28;20181;-83
2023/03/19 03:07:18;;;;;;;0.60;0.60;;;;;;;;;;4996570;28;20199;-83
2023/03/19 03:09:44;;;;;;;0.60;0.60;;;;;;;;;;4995729;28;20548;-83
2023/03/19 03:12:11;;;;;;;0.60;0.60;;;;;;;;;;4995463;28;20189;-83
2023/03/19 03:14:37;;;;;;;0.70;0.70;;;;;;;;;;4995148;28;20236;-84
2023/03/19 03:17:03;;;;;;;0.50;0.50;;;;;;;;;;4995427;28;20220;-82
2023/03/19 03:19:29;;;;;;;0.50;0.50;;;;;;;;;;4994748;28;20207;-85
2023/03/19 03:21:55;;;;;;;0.60;0.60;;;;;;;;;;4994984;28;20181;-85
2023/03/19 03:24:21;;;;;;;0.60;0.60;;;;;;;;;;4994280;28;20197;-85
2023/03/19 03:26:47;;;;;;;0.50;0.50;;;;;;;;;;4995344;28;20177;-85
2023/03/19 03:29:13;;;;;;;0.60;0.60;;;;;;;;;;4994776;28;20514;-84
2023/03/19 03:31:39;;;;;;;0.60;0.60;;;;;;;;;;4995050;28;20228;-84
2023/03/19 03:34:06;;;;;;;0.57;0.57;;;;;;;;;;4994542;28;20776;-83
2023/03/19 03:36:32;;;;;;;0.67;0.67;;;;;;;;;;4994509;28;20220;-82
2023/03/19 03:38:59;;;;;;;0.50;0.50;;;;;;;;;;4994901;28;20189;-84
2023/03/19 03:41:24;;;;;;;0.67;0.67;;;;;;;;;;4994879;28;20277;-84
2023/03/19 03:43:51;;;;;;;0.50;0.50;;;;;;;;;;4994475;28;20237;-84
2023/03/19 03:46:17;;;;;;;0.63;0.63;;;;;;;;;;4994681;28;20251;-85
2023/03/19 03:48:43;;;;;;;0.50;0.50;;;;;;;;;;4994173;28;20174;-84
2023/03/19 03:51:10;;;;;;;0.60;0.60;;;;;;;;;;4994096;28;20190;-84
2023/03/19 03:53:36;;;;;;;0.60;0.60;;;;;;;;;;4994184;28;20197;-84
2023/03/19 03:56:02;;;;;;;0.60;0.60;;;;;;;;;;4994396;28;20173;-81
2023/03/19 03:58:28;;;;;;;0.57;0.57;;;;;;;;;;4994155;28;20220;-84
2023/03/19 04:00:54;;;;;;;0.60;0.60;;;;;;;;;;4993936;28;20806;-84
2023/03/19 04:03:23;;;;;;;0.50;0.50;;;;;;;;;;4993245;28;20189;-83
2023/03/19 04:05:48;;;;;;;0.60;0.60;;;;;;;;;;4994506;28;20308;-81
2023/03/19 04:08:14;;;;;;;0.50;0.50;;;;;;;;;;4995568;28;20216;-82
2023/03/19 04:10:41;;;;;;;0.63;0.63;;;;;;;;;;4995975;28;20238;-82
2023/03/19 04:13:08;;;;;;;0.60;0.60;;;;;;;;;;5005716;28;20208;-80
2023/03/19 04:15:34;;;;;;;0.67;0.67;;;;;;;;;;5016967;28;20196;-80
2023/03/19 04:18:00;;;;;;;0.50;0.50;;;;;;;;;;5006267;28;20225;-82
2023/03/19 04:20:26;;;;;;;0.60;0.60;;;;;;;;;;4999620;28;20260;-81
2023/03/19 04:22:52;;;;;;;0.60;0.60;;;;;;;;;;4995409;28;20229;-81
2023/03/19 04:25:18;;;;;;;0.70;0.70;;;;;;;;;;5014644;28;20168;-79
2023/03/19 04:27:45;;;;;;;0.60;0.60;;;;;;;;;;5016813;28;20185;-79
2023/03/19 04:30:11;;;;;;;0.60;0.60;;;;;;;;;;5009477;28;20678;-82
2023/03/19 04:32:37;;;;;;;0.70;0.70;;;;;;;;;;4996202;28;20205;-81
2023/03/19 04:35:03;;;;;;;0.50;0.50;;;;;;;;;;4999037;28;20176;-81
2023/03/19 04:37:30;;;;;;;0.50;0.50;;;;;;;;;;4996877;28;20216;-82
2023/03/19 04:39:56;;;;;;;0.60;0.60;;;;;;;;;;5007997;28;20189;-81
2023/03/19 04:42:22;;;;;;;0.53;0.53;;;;;;;;;;5011208;28;20177;-81
2023/03/19 04:44:48;;;;;;;0.67;0.67;;;;;;;;;;5005105;28;20600;-81
2023/03/19 04:47:14;;;;;;;0.50;0.50;;;;;;;;;;5000994;28;20185;-81
2023/03/19 04:49:41;;;;;;;0.60;0.60;;;;;;;;;;4998852;28;20192;-82
2023/03/19 04:52:08;;;;;;;0.53;0.53;;;;;;;;;;4994327;28;20623;-81
2023/03/19 04:54:34;;;;;;;0.60;0.60;;;;;;;;;;4993414;28;20204;-82
2023/03/19 04:57:00;;;;;;;0.63;0.63;;;;;;;;;;4993642;28;20299;-81
2023/03/19 04:59:26;;;;;;;0.60;0.60;;;;;;;;;;4995034;28;20623;-82
2023/03/19 05:01:52;;;;;;;0.60;0.60;;;;;;;;;;4997660;28;20284;-83
2023/03/19 05:04:18;;;;;;;0.60;0.60;;;;;;;;;;4997786;28;20208;-82
2023/03/19 05:06:44;;;;;;;0.60;0.60;;;;;;;;;;4997932;28;20181;-81
2023/03/19 05:09:10;;;;;;;0.70;0.70;;;;;;;;;;4997841;28;20173;-81
2023/03/19 05:11:36;;;;;;;0.60;0.60;;;;;;;;;;4997372;28;20656;-82
2023/03/19 05:14:02;;;;;;;0.60;0.60;;;;;;;;;;4997227;28;20201;-81
2023/03/19 05:16:28;;;;;;;0.60;0.60;;;;;;;;;;4997757;28;20181;-81
2023/03/19 05:18:54;;;;;;;0.70;0.70;;;;;;;;;;4998105;28;20189;-83
2023/03/19 05:21:21;;;;;;;0.67;0.67;;;;;;;;;;4996922;28;20572;-87
2023/03/19 05:23:51;;;;;;;0.70;0.70;;;;;;;;;;4996969;28;20208;-83
2023/03/19 05:26:17;;;;;;;0.57;0.57;;;;;;;;;;4998399;28;20188;-84
2023/03/19 05:28:43;;;;;;;0.70;0.70;;;;;;;;;;4998292;28;20200;-83
2023/03/19 05:31:09;;;;;;;0.50;0.50;;;;;;;;;;4997637;28;20177;-83
2023/03/19 05:33:35;;;;;;;0.70;0.70;;;;;;;;;;4997772;28;20205;-83
2023/03/19 05:36:01;;;;;;;0.60;0.60;;;;;;;;;;4998251;28;20281;-84
2023/03/19 05:38:28;;;;;;;0.70;0.70;;;;;;;;;;4997335;28;20209;-82
2023/03/19 05:40:54;;;;;;;0.70;0.70;;;;;;;;;;4997707;28;20241;-83
2023/03/19 05:43:19;;;;;;;0.60;0.60;;;;;;;;;;4996263;28;20248;-83
2023/03/19 05:45:50;;;;;;;0.70;0.70;;;;;;;;;;4997636;28;20180;-83
2023/03/19 05:48:16;;;;;;;0.60;0.60;;;;;;;;;;4997628;28;20196;-84
2023/03/19 05:50:42;;;;;;;0.67;0.67;;;;;;;;;;4997447;28;20213;-83
2023/03/19 05:53:08;;;;;;;0.60;0.60;;;;;;;;;;4997474;28;20193;-82
2023/03/19 05:55:34;;;;;;;0.50;0.50;;;;;;;;;;4997538;28;20177;-82
2023/03/19 05:58:00;;;;;;;0.60;0.60;;;;;;;;;;4997649;28;20240;-83
2023/03/19 06:00:26;;;;;;;0.53;0.53;;;;;;;;;;4998142;28;20177;-82
2023/03/19 06:02:53;;;;;;;0.67;0.67;;;;;;;;;;4997360;28;20688;-83
2023/03/19 06:05:19;;;;;;;0.60;0.60;;;;;;;;;;4998168;28;20181;-82
2023/03/19 06:07:45;;;;;;;0.57;0.57;;;;;;;;;;4998100;28;20197;-83
2023/03/19 06:10:12;;;;;;;0.60;0.60;;;;;;;;;;4997491;28;20185;-83
2023/03/19 06:12:37;;;;;;;0.60;0.60;;;;;;;;;;4997504;28;20221;-83
2023/03/19 06:15:04;;;;;;;0.60;0.60;;;;;;;;;;4997607;28;20186;-81
2023/03/19 06:17:30;;;;;;;0.70;0.70;;;;;;;;;;4998207;28;20220;-83
2023/03/19 06:19:56;;;;;;;0.70;0.70;;;;;;;;;;4997658;28;20199;-84
2023/03/19 06:22:22;;;;;;;0.60;0.60;;;;;;;;;;4996838;28;20181;-83
2023/03/19 06:24:48;;;;;;;0.67;0.67;;;;;;;;;;4997867;28;20185;-84
2023/03/19 06:27:14;;;;;;;0.60;0.60;;;;;;;;;;4998396;28;20215;-83
2023/03/19 06:29:40;;;;;;;0.50;0.50;;;;;;;;;;4998334;28;20181;-82
2023/03/19 06:32:06;;;;;;;0.60;0.60;;;;;;;;;;4998449;28;20173;-83
2023/03/19 06:34:32;;;;;;;0.50;0.50;;;;;;;;;;4998478;28;20224;-83
2023/03/19 06:36:58;;;;;;;0.63;0.63;;;;;;;;;;4998651;28;20213;-84
2023/03/19 06:39:24;;;;;;;0.60;0.60;;;;;;;;;;4998327;28;20177;-84
2023/03/19 06:41:51;;;;;;;0.60;0.60;;;;;;;;;;4998767;28;20181;-84
2023/03/19 06:44:17;;;;;;;0.50;0.50;;;;;;;;;;4998568;28;20247;-84
2023/03/19 06:46:43;;;;;;;0.60;0.60;;;;;;;;;;4998693;28;20185;-84
2023/03/19 06:49:09;;;;;;;0.60;0.60;;;;;;;;;;4997336;28;20652;-84
2023/03/19 06:51:35;;;;;;;0.60;0.60;;;;;;;;;;4998094;28;20559;-84
2023/03/19 06:54:01;;;;;;;0.50;0.50;;;;;;;;;;4997600;28;20202;-84
2023/03/19 06:56:28;;;;;;;0.50;0.50;;;;;;;;;;4998679;28;20189;-83
2023/03/19 06:58:54;;;;;;;0.50;0.50;;;;;;;;;;4999917;28;20181;-83
2023/03/19 07:01:20;;;;;;;0.60;0.60;;;;;;;;;;4999279;28;20177;-84
2023/03/19 07:03:46;;;;;;;0.60;0.60;;;;;;;;;;4998904;28;20225;-83
2023/03/19 07:06:12;;;;;;;0.63;0.63;;;;;;;;;;5009191;28;20184;-81
2023/03/19 07:08:39;;;;;;;0.60;0.60;;;;;;;;;;5018268;28;20164;-79
2023/03/19 07:11:06;;;;;;;0.50;0.50;;;;;;;;;;5017798;28;20161;-82
2023/03/19 07:13:33;;;;;;;0.60;0.60;;;;;;;;;;5017056;28;20209;-82
2023/03/19 07:15:59;;;;;;;0.60;0.60;;;;;;;;;;4998619;28;20212;-84
2023/03/19 07:18:26;;;;;;;0.70;0.70;;;;;;;;;;4997309;28;20220;-84
2023/03/19 07:20:52;;;;;;;0.60;0.60;;;;;;;;;;4997050;28;20847;-84
2023/03/19 07:23:18;;;;;;;0.60;0.60;;;;;;;;;;4996646;28;20204;-84
2023/03/19 07:25:44;;;;;;;0.70;0.70;;;;;;;;;;4998103;28;20209;-82
2023/03/19 07:28:10;;;;;;;0.50;0.50;;;;;;;;;;4998795;28;20189;-84
2023/03/19 07:30:37;;;;;;;0.50;0.50;;;;;;;;;;5000430;28;20177;-84
2023/03/19 07:33:03;;;;;;;0.70;0.70;;;;;;;;;;4999583;28;20200;-83
2023/03/19 07:35:29;;;;;;;0.60;0.60;;;;;;;;;;4997755;28;20527;-83
2023/03/19 07:37:55;;;;;;;0.60;0.60;;;;;;;;;;4997546;28;20223;-83
2023/03/19 07:40:21;;;;;;;0.60;0.60;;;;;;;;;;4998570;28;20177;-83
2023/03/19 07:42:47;;;;;;;0.70;0.70;;;;;;;;;;4998795;28;20201;-83
2023/03/19 07:45:13;;;;;;;0.60;0.60;;;;;;;;;;5000479;28;20181;-83
2023/03/19 07:47:39;;;;;;;0.70;0.70;;;;;;;;;;4999811;28;20180;-83
2023/03/19 07:50:06;;;;;;;0.70;0.70;;;;;;;;;;4999628;28;20165;-82
2023/03/19 07:52:32;;;;;;;0.60;0.60;;;;;;;;;;4997732;28;20213;-82
2023/03/19 07:54:58;;;;;;;0.63;0.63;;;;;;;;;;4998888;28;20272;-83
2023/03/19 07:57:24;;;;;;;0.50;0.50;;;;;;;;;;4998182;28;20213;-83
2023/03/19 07:59:50;;;;;;;0.60;0.60;;;;;;;;;;4998569;28;20276;-83
2023/03/19 08:02:17;;;;;;;0.50;0.50;;;;;;;;;;4998687;28;20192;-84
2023/03/19 08:04:43;;;;;;;0.50;0.50;;;;;;;;;;4999404;28;20173;-84
2023/03/19 08:07:10;;;;;;;0.60;0.60;;;;;;;;;;4999963;28;20263;-84
2023/03/19 08:09:36;;;;;;;0.70;0.70;;;;;;;;;;4999435;28;20578;-84
2023/03/19 08:12:02;;;;;;;0.60;0.60;;;;;;;;;;4998750;28;20185;-83
2023/03/19 08:14:28;;;;;;;0.60;0.60;;;;;;;;;;4997445;28;20708;-83
2023/03/19 08:16:54;;;;;;;0.60;0.60;;;;;;;;;;5000926;28;20224;-84
2023/03/19 08:19:21;;;;;;;0.70;0.70;;;;;;;;;;4998699;28;20748;-84
2023/03/19 08:21:47;;;;;;;0.70;0.70;;;;;;;;;;4997223;28;20189;-82
2023/03/19 08:24:12;;;;;;;0.60;0.60;;;;;;;;;;4998988;28;20538;-84
2023/03/19 08:26:39;;;;;;;0.50;0.50;;;;;;;;;;4996999;28;20181;-86
2023/03/19 08:29:05;;;;;;;0.70;0.70;;;;;;;;;;4999065;28;20207;-86
2023/03/19 08:31:31;;;;;;;0.60;0.60;;;;;;;;;;4998407;28;20216;-86
2023/03/19 08:34:03;;;;;;;0.60;0.60;;;;;;;;;;4998238;28;20271;-85
2023/03/19 08:36:29;;;;;;;0.60;0.60;;;;;;;;;;5007438;28;20212;-83
2023/03/19 08:38:55;;;;;;;0.57;0.57;;;;;;;;;;4998304;28;20200;-84
2023/03/19 08:41:22;;;;;;;0.70;0.70;;;;;;;;;;5002957;28;20260;-87
2023/03/19 08:43:48;;;;;;;0.60;0.60;;;;;;;;;;5001393;28;20639;-84
2023/03/19 08:46:15;;;;;;;0.60;0.60;;;;;;;;;;4997172;28;20177;-83
2023/03/19 08:48:41;;;;;;;0.60;0.60;;;;;;;;;;4997083;28;20177;-83
2023/03/19 08:51:08;;;;;;;0.40;0.40;;;;;;;;;;4996533;28;20192;-81
2023/03/19 08:53:34;;;;;;;0.60;0.60;;;;;;;;;;4995653;28;20204;-80
2023/03/19 08:56:01;;;;;;;0.50;0.50;;;;;;;;;;4995537;28;20177;-81
2023/03/19 08:58:27;;;;;;;0.70;0.70;;;;;;;;;;4995719;28;20221;-81
2023/03/19 09:01:00;;;;;;;0.60;0.60;;;;;;;;;;4996820;28;20656;-80
2023/03/19 09:03:26;;;;;;;0.60;0.60;;;;;;;;;;4995579;28;20283;-82
2023/03/19 09:05:52;;;;;;;0.70;0.70;;;;;;;;;;4996043;28;20541;-82
2023/03/19 09:08:18;;;;;;;0.70;0.70;;;;;;;;;;4995769;28;20479;-81
2023/03/19 09:10:44;;;;;;;0.50;0.50;;;;;;;;;;4995277;28;20239;-79
2023/03/19 09:13:10;;;;;;;0.70;0.70;;;;;;;;;;4994690;28;20236;-83
2023/03/19 09:15:36;;;;;;;0.50;0.50;;;;;;;;;;4994706;28;20239;-80
2023/03/19 09:18:02;;;;;;;0.70;0.70;;;;;;;;;;4994823;28;20228;-81
2023/03/19 09:20:28;;;;;;;0.60;0.60;;;;;;;;;;4995306;28;20781;-81
2023/03/19 09:22:54;;;;;;;0.50;0.50;;;;;;;;;;4996160;28;20228;-81
2023/03/19 09:25:20;;;;;;;0.60;0.60;;;;;;;;;;4996526;28;20173;-83
2023/03/19 09:27:46;;;;;;;0.53;0.53;;;;;;;;;;4996345;28;20231;-82
2023/03/19 09:30:12;;;;;;;0.70;0.70;;;;;;;;;;4995607;28;20181;-81
2023/03/19 09:32:38;;;;;;;0.50;0.50;;;;;;;;;;4996893;28;20189;-83
2023/03/19 09:35:05;;;;;;;0.60;0.60;;;;;;;;;;4995913;28;20182;-81
2023/03/19 09:37:31;;;;;;;0.60;0.60;;;;;;;;;;4995984;28;20213;-82
2023/03/19 09:39:57;;;;;;;0.50;0.50;;;;;;;;;;4997358;28;20533;-83
2023/03/19 09:42:41;;;;;;;0.50;0.50;;;;;;;;;;4996024;28;20204;-83
2023/03/19 09:45:12;;;;;;;0.57;0.57;;;;;;;;;;4994321;28;20184;-83
2023/03/19 09:47:38;;;;;;;0.43;0.43;;;;;;;;;;4998802;28;20671;-85
2023/03/19 09:50:16;;;;;;;0.30;0.30;;;;;;;;;;4997611;28;20619;-87
2023/03/19 09:52:47;;;;;;;0.30;0.30;;;;;;;;;;4997086;28;20205;-89
2023/03/19 09:55:13;;;;;;;0.30;0.30;;;;;;;;;;4997187;28;20177;-88
2023/03/19 09:57:39;;;;;;;0.20;0.20;;;;;;;;;;4998983;28;20559;-86
2023/03/19 10:00:14;;;;;;;0.30;0.30;;;;;;;;;;4999688;28;20199;-88
2023/03/19 10:02:42;;;;;;;0.40;0.40;;;;;;;;;;4999548;28;20201;-88
2023/03/19 10:05:14;;;;;;;0.30;0.30;;;;;;;;;;4999919;28;20227;-86
2023/03/19 10:07:40;;;;;;;0.50;0.50;;;;;;;;;;4998109;28;20280;-85
2023/03/19 10:10:14;;;;;;;0.40;0.40;;;;;;;;;;4998582;28;20169;-85
2023/03/19 10:12:40;;;;;;;0.40;0.40;;;;;;;;;;4998951;28;20225;-86
2023/03/19 10:15:15;;;;;;;0.33;0.33;;;;;;;;;;5001363;28;20189;-85
2023/03/19 10:17:51;;;;;;;0.47;0.47;;;;;;;;;;5004143;28;20219;-84
2023/03/19 10:20:17;;;;;;;0.30;0.30;;;;;;;;;;5005302;28;20204;-85
2023/03/19 10:22:46;;;;;;;0.47;0.47;;;;;;;;;;5001982;28;20256;-86
2023/03/19 10:25:16;;;;;;;0.30;0.30;;;;;;;;;;5007240;28;20181;-85
2023/03/19 10:27:44;;;;;;;0.40;0.40;;;;;;;;;;5004476;28;20182;-85
2023/03/19 10:30:18;;;;;;;0.40;0.40;;;;;;;;;;4999369;28;20285;-85
2023/03/19 10:32:45;;;;;;;0.30;0.30;;;;;;;;;;4999297;28;20200;-86
2023/03/19 10:35:19;;;;;;;0.30;0.30;;;;;;;;;;4997760;28;20207;-86
2023/03/19 10:37:45;;;;;;;0.20;0.20;;;;;;;;;;4996733;28;20304;-85
2023/03/19 10:40:19;;;;;;;0.27;0.27;;;;;;;;;;5000653;28;20178;-85
2023/03/19 10:42:55;;;;;;;0.37;0.37;;;;;;;;;;5003646;28;20279;-86
2023/03/19 10:45:31;;;;;;;0.30;0.30;;;;;;;;;;5002406;28;20176;-86
2023/03/19 10:47:58;;;;;;;0.30;0.30;;;;;;;;;;5004280;28;20184;-86
2023/03/19 10:50:57;;;;;;;0.30;0.30;;;;;;;;;;5002990;28;20203;-86
2023/03/19 10:53:36;;;;;;;0.30;0.30;;;;;;;;;;4985874;28;20272;-85
2023/03/19 10:56:06;;;;;;;0.30;0.30;;;;;;;;;;5013932;28;20177;-86
2023/03/19 10:58:36;;;;;;;0.30;0.30;;;;;;;;;;5013763;28;20220;-85
2023/03/19 11:01:07;;;;;;;0.30;0.30;;;;;;;;;;5013036;28;20189;-85
2023/03/19 11:03:37;;;;;;;0.30;0.30;;;;;;;;;;5009904;28;20189;-83
2023/03/19 11:06:16;;;;;;;0.20;0.20;;;;;;;;;;4998511;28;20248;-88
2023/03/19 11:08:42;;;;;;;0.23;0.23;;;;;;;;;;4999141;28;20180;-86
2023/03/19 11:11:22;;;;;;;0.40;0.40;;;;;;;;;;4999888;28;20173;-86
2023/03/19 11:13:49;;;;;;;0.30;0.30;;;;;;;;;;4999124;28;20197;-84
2023/03/19 11:16:15;;;;;;;0.33;0.33;;;;;;;;;;4997279;28;20177;-87
2023/03/19 11:18:42;;;;;;;0.40;0.40;;;;;;;;;;4998966;28;20686;-85
2023/03/19 11:21:20;;;;;;;0.40;0.40;;;;;;;;;;4997747;28;20185;-84
2023/03/19 11:23:51;;;;;;;0.30;0.30;;;;;;;;;;4997916;28;20271;-86
2023/03/19 11:26:23;;;;;;;0.40;0.40;;;;;;;;;;4998651;28;20240;-84
2023/03/19 11:28:52;;;;;;;0.33;0.33;;;;;;;;;;4997596;28;20177;-85
2023/03/19 11:31:27;;;;;;;0.30;0.30;;;;;;;;;;5000665;28;20644;-84
2023/03/19 11:33:57;;;;;;;0.30;0.30;;;;;;;;;;4992714;28;20208;-87
2023/03/19 11:36:32;;;;;;;0.23;0.23;;;;;;;;;;4991102;28;20208;-84
2023/03/19 11:39:17;;;;;;;0.30;0.30;;;;;;;;;;4994197;28;20281;-85
2023/03/19 11:41:43;;;;;;;0.30;0.30;;;;;;;;;;4986689;28;20181;-84
2023/03/19 11:44:17;;;;;;;0.33;0.33;;;;;;;;;;4998296;28;20193;-84
2023/03/19 11:46:53;;;;;;;0.30;0.30;;;;;;;;;;4996314;28;20725;-85
2023/03/19 11:49:37;;;;;;;0.30;0.30;;;;;;;;;;5000828;28;20191;-83
2023/03/19 11:52:03;;;;;;;0.40;0.40;;;;;;;;;;5001018;28;20669;-85
2023/03/19 11:54:43;;;;;;;0.30;0.30;;;;;;;;;;5000637;28;20224;-86
2023/03/19 11:57:18;;;;;;;0.30;0.30;;;;;;;;;;4986851;28;20291;-86
2023/03/19 12:00:20;;;;;;;0.30;0.30;;;;;;;;;;4997814;28;20203;-86
2023/03/19 12:03:05;;;;;;;0.30;0.30;;;;;;;;;;4972118;28;20193;-85
2023/03/19 12:05:32;;;;;;;0.40;0.40;;;;;;;;;;4996373;28;20611;-86
2023/03/19 12:08:06;;;;;;;0.27;0.27;;;;;;;;;;4999722;28;20291;-84
2023/03/19 12:10:32;;;;;;;0.30;0.30;;;;;;;;;;5000975;28;20173;-84
2023/03/19 12:13:07;;;;;;;0.20;0.20;;;;;;;;;;5000288;28;20204;-87
2023/03/19 12:15:52;;;;;;;0.30;0.30;;;;;;;;;;4997163;28;20271;-87
2023/03/19 12:18:37;;;;;;;0.40;0.40;;;;;;;;;;4997234;28;20223;-87
2023/03/19 12:21:09;;;;;;;0.20;0.20;;;;;;;;;;4999330;28;20196;-85
2023/03/19 12:23:35;;;;;;;0.30;0.30;;;;;;;;;;5002547;28;20251;-85
2023/03/19 12:26:05;;;;;;;0.30;0.30;;;;;;;;;;5003924;28;20177;-85
2023/03/19 12:28:39;;;;;;;0.30;0.30;;;;;;;;;;5003442;28;20265;-86
2023/03/19 12:31:20;;;;;;;0.30;0.30;;;;;;;;;;5000474;28;20199;-87
2023/03/19 12:34:01;;;;;;;0.20;0.20;;;;;;;;;;5002607;28;20197;-86
2023/03/19 12:36:32;;;;;;;0.30;0.30;;;;;;;;;;5005355;28;20185;-86
2023/03/19 12:39:02;;;;;;;0.33;0.33;;;;;;;;;;5001174;28;20269;-85
2023/03/19 12:41:30;;;;;;;0.30;0.30;;;;;;;;;;5009435;28;20161;-84
2023/03/19 12:44:17;;;;;;;0.30;0.30;;;;;;;;;;5013342;28;20189;-85
2023/03/19 12:46:46;;;;;;;0.40;0.40;;;;;;;;;;5009801;28;20177;-84
2023/03/19 12:49:25;;;;;;;0.30;0.30;;;;;;;;;;4999648;28;20177;-85
2023/03/19 12:52:03;;;;;;;0.30;0.30;;;;;;;;;;5010014;28;20233;-82
2023/03/19 12:54:33;;;;;;;0.30;0.30;;;;;;;;;;5015826;28;20193;-84
2023/03/19 12:56:59;;;;;;;0.30;0.30;;;;;;;;;;5016385;28;20231;-82
2023/03/19 12:59:25;;;;;;;0.30;0.30;;;;;;;;;;5016372;28;20166;-84
2023/03/19 13:01:58;;;;;;;0.30;0.30;;;;;;;;;;5011722;28;20280;-84
2023/03/19 13:04:26;;;;;;;0.30;0.30;;;;;;;;;;4998163;28;20691;-83
2023/03/19 13:06:55;;;;;;;0.30;0.30;;;;;;;;;;4995872;28;20205;-82
2023/03/19 13:09:40;;;;;;;0.30;0.30;;;;;;;;;;4995269;28;20235;-83
2023/03/19 13:12:11;;;;;;;0.30;0.30;;;;;;;;;;4994966;28;20659;-84
2023/03/19 13:14:46;;;;;;;0.33;0.33;;;;;;;;;;4995339;28;20244;-83
2023/03/19 13:17:18;;;;;;;0.30;0.30;;;;;;;;;;4993522;28;20572;-83
2023/03/19 13:19:44;;;;;;;0.30;0.30;;;;;;;;;;4994513;28;20564;-83
2023/03/19 13:22:12;;;;;;;0.30;0.30;;;;;;;;;;4996503;28;20200;-82
2023/03/19 13:24:40;;;;;;;0.30;0.30;;;;;;;;;;4998343;28;20185;-83
2023/03/19 13:27:08;;;;;;;0.30;0.30;;;;;;;;;;4998716;28;20192;-82
2023/03/19 13:29:36;;;;;;;0.30;0.30;;;;;;;;;;4998534;28;20553;-87
2023/03/19 13:32:05;;;;;;;0.30;0.30;;;;;;;;;;5001700;28;20193;-84
2023/03/19 13:34:32;;;;;;;0.30;0.30;;;;;;;;;;4998255;28;20189;-85
2023/03/19 13:37:07;;;;;;;0.30;0.30;;;;;;;;;;4998949;28;20264;-89
2023/03/19 13:39:34;;;;;;;0.40;0.40;;;;;;;;;;5000346;28;20183;-85
2023/03/19 13:42:19;;;;;;;0.40;0.40;;;;;;;;;;4995607;28;20217;-86
2023/03/19 13:44:50;;;;;;;0.50;0.50;;;;;;;;;;4997615;28;20540;-84
2023/03/19 13:47:25;;;;;;;0.40;0.40;;;;;;;;;;4998662;28;20264;-85
2023/03/19 13:50:00;;;;;;;0.30;0.30;;;;;;;;;;4998585;28;20184;-86
2023/03/19 13:52:26;;;;;;;0.30;0.30;;;;;;;;;;4997536;28;20195;-84
2023/03/19 13:54:56;;;;;;;0.30;0.30;;;;;;;;;;4997705;28;20181;-85
2023/03/19 13:57:33;;;;;;;0.40;0.40;;;;;;;;;;4997731;28;20197;-84
2023/03/19 14:00:19;;;;;;;0.40;0.40;;;;;;;;;;4997759;28;20287;-85
2023/03/19 14:02:46;;;;;;;0.50;0.50;;;;;;;;;;4996856;28;20537;-85
2023/03/19 14:05:20;;;;;;;0.30;0.30;;;;;;;;;;4998029;28;20784;-84
2023/03/19 14:07:53;;;;;;;0.40;0.40;;;;;;;;;;4997577;28;20173;-85
2023/03/19 14:10:19;;;;;;;0.40;0.40;;;;;;;;;;4997049;28;20726;-84
2023/03/19 14:12:46;;;;;;;0.30;0.30;;;;;;;;;;4996904;28;20236;-83
2023/03/19 14:15:18;;;;;;;0.33;0.33;;;;;;;;;;4997328;28;20185;-84
2023/03/19 14:17:45;;;;;;;0.30;0.30;;;;;;;;;;4996896;28;20197;-84
2023/03/19 14:20:15;;;;;;;0.47;0.47;;;;;;;;;;4997933;28;20787;-84
2023/03/19 14:22:41;;;;;;;0.40;0.40;;;;;;;;;;4996898;28;20208;-85
2023/03/19 14:25:18;;;;;;;0.40;0.40;;;;;;;;;;4998433;28;20173;-84
2023/03/19 14:27:46;;;;;;;0.40;0.40;;;;;;;;;;4997360;28;20268;-83
2023/03/19 14:30:37;;;;;;;0.30;0.30;;;;;;;;;;4995502;28;20181;-82
2023/03/19 14:33:07;;;;;;;0.43;0.43;;;;;;;;;;4993652;28;20264;-82
2023/03/19 14:35:36;;;;;;;0.40;0.40;;;;;;;;;;4995973;28;20232;-85
2023/03/19 14:38:04;;;;;;;0.30;0.30;;;;;;;;;;4997170;28;20227;-85
2023/03/19 14:40:51;;;;;;;0.40;0.40;;;;;;;;;;4998059;28;20201;-85
2023/03/19 14:43:17;;;;;;;0.30;0.30;;;;;;;;;;4997097;28;21012;-85
2023/03/19 14:45:47;;;;;;;0.30;0.30;;;;;;;;;;4992546;28;20221;-86
2023/03/19 14:48:25;;;;;;;0.50;0.50;;;;;;;;;;5000492;28;20240;-86
2023/03/19 14:50:57;;;;;;;0.40;0.40;;;;;;;;;;5000162;28;20181;-85